Time;durP1;ratioP1;P1;durP2;ratioP2;P2;SDS_P1;SDS_P2;PMS_P1;PMS_P2;Temp;Humidity;BMP_temperature;BMP_pressure;BME280_temperature;BME280_humidity;BME280_pressure;Samples;Min_cycle;Max_cycle;Signal;HPM_P1;HPM_P2
2023/04/09 00:00:18;;;;;;;47.17;33.60;;;8.40;99.90;;;;;;4994220;28;20056;-58
2023/04/09 00:02:44;;;;;;;51.85;37.60;;;8.40;99.90;;;;;;4986938;28;20537;-65
2023/04/09 00:05:10;;;;;;;48.60;33.92;;;8.40;99.90;;;;;;4986585;28;20065;-61
2023/04/09 00:07:36;;;;;;;47.25;33.92;;;8.40;99.90;;;;;;4987745;28;20065;-67
2023/04/09 00:10:02;;;;;;;47.67;34.45;;;8.40;99.90;;;;;;4987966;28;20556;-63
2023/04/09 00:12:29;;;;;;;50.00;35.50;;;8.40;99.90;;;;;;4988042;28;20088;-63
2023/04/09 00:14:55;;;;;;;55.33;37.17;;;8.40;99.90;;;;;;4988416;28;20050;-63
2023/04/09 00:17:20;;;;;;;51.55;36.67;;;8.40;99.90;;;;;;4988245;28;20534;-66
2023/04/09 00:19:46;;;;;;;51.33;34.17;;;8.40;99.90;;;;;;4987395;28;20097;-61
2023/04/09 00:22:12;;;;;;;47.78;34.45;;;8.40;99.90;;;;;;4987412;28;20054;-58
2023/04/09 00:24:38;;;;;;;48.22;35.50;;;8.40;99.90;;;;;;4987961;28;20046;-61
2023/04/09 00:27:03;;;;;;;44.72;32.00;;;8.40;99.90;;;;;;4986525;28;20104;-63
2023/04/09 00:29:29;;;;;;;46.97;33.20;;;8.40;99.90;;;;;;4987691;28;20666;-63
2023/04/09 00:31:55;;;;;;;47.67;33.78;;;8.40;99.90;;;;;;4988324;28;20674;-66
2023/04/09 00:34:20;;;;;;;46.50;33.67;;;8.30;99.90;;;;;;4988330;28;20054;-66
2023/04/09 00:36:46;;;;;;;46.30;33.28;;;8.50;99.90;;;;;;4986453;28;20149;-66
2023/04/09 00:39:11;;;;;;;50.30;33.90;;;8.60;99.90;;;;;;4987875;28;20058;-67
2023/04/09 00:41:37;;;;;;;48.22;33.17;;;8.30;99.90;;;;;;5000964;28;20046;-65
2023/04/09 00:44:03;;;;;;;47.92;33.25;;;8.40;99.90;;;;;;5006343;28;20041;-65
2023/04/09 00:46:30;;;;;;;46.33;32.35;;;8.40;99.90;;;;;;5007090;28;20052;-63
2023/04/09 00:48:55;;;;;;;47.58;32.63;;;8.40;99.90;;;;;;5007115;28;20030;-66
2023/04/09 00:51:21;;;;;;;49.05;33.03;;;8.40;99.90;;;;;;5006129;28;20116;-62
2023/04/09 00:53:47;;;;;;;47.95;33.83;;;8.40;99.90;;;;;;5004215;28;20073;-64
2023/04/09 00:56:14;;;;;;;44.08;32.45;;;8.50;99.90;;;;;;5006983;28;20045;-66
2023/04/09 00:58:40;;;;;;;53.28;36.38;;;8.40;99.90;;;;;;5006215;28;20041;-62
2023/04/09 01:01:06;;;;;;;49.97;36.03;;;8.40;99.90;;;;;;5006291;28;20042;-62
2023/04/09 01:03:32;;;;;;;48.88;34.50;;;8.50;99.90;;;;;;5005100;28;20105;-63
2023/04/09 01:06:24;;;;;;;48.92;35.75;;;8.30;99.90;;;;;;5006770;28;20085;-67
2023/04/09 01:08:58;;;;;;;51.97;35.35;;;8.60;99.90;;;;;;4978446;28;20065;-65
2023/04/09 01:11:36;;;;;;;57.57;37.17;;;8.40;99.90;;;;;;5006731;28;20038;-65
2023/04/09 01:14:23;;;;;;;53.75;37.30;;;8.40;99.90;;;;;;5088501;22;20053;-55
2023/04/09 01:16:54;;;;;;;46.45;34.08;;;8.40;99.90;;;;;;5012176;28;20045;-54
2023/04/09 01:19:40;;;;;;;54.53;37.22;;;8.40;99.90;;;;;;5021713;28;20172;-55
2023/04/09 01:22:17;;;;;;;50.75;36.10;;;8.40;99.90;;;;;;5005511;28;20046;-55
2023/04/09 01:25:09;;;;;;;53.50;35.80;;;8.40;99.90;;;;;;5006474;28;20075;-54
2023/04/09 01:28:05;;;;;;;52.88;35.83;;;8.40;99.90;;;;;;5006574;28;20439;-55
2023/04/09 01:30:31;;;;;;;52.40;36.35;;;8.40;99.90;;;;;;4994504;28;20057;-55
2023/04/09 01:32:58;;;;;;;52.00;37.47;;;8.40;99.90;;;;;;5006189;28;20084;-55
2023/04/09 01:35:26;;;;;;;54.25;37.65;;;8.40;99.90;;;;;;5006794;28;20111;-55
2023/04/09 01:37:54;;;;;;;52.47;36.85;;;8.30;99.90;;;;;;5005644;28;20041;-55
2023/04/09 01:40:20;;;;;;;53.75;36.63;;;8.30;99.90;;;;;;5006522;28;20045;-53
2023/04/09 01:42:47;;;;;;;56.40;37.05;;;8.30;99.90;;;;;;5006455;28;20073;-55
2023/04/09 01:45:15;;;;;;;53.47;39.08;;;8.30;99.90;;;;;;5006238;28;20050;-55
2023/04/09 01:47:41;;;;;;;54.65;38.08;;;8.30;99.90;;;;;;5006381;28;20049;-55
2023/04/09 01:50:07;;;;;;;59.05;38.22;;;8.30;99.90;;;;;;5005167;28;20489;-54
2023/04/09 01:52:33;;;;;;;59.15;39.03;;;8.30;99.90;;;;;;5003148;28;20045;-55
2023/04/09 01:54:59;;;;;;;57.30;40.25;;;8.40;99.90;;;;;;5005930;28;20042;-53
2023/04/09 01:57:24;;;;;;;56.78;40.00;;;8.80;99.90;;;;;;5007485;28;20065;-55
2023/04/09 01:59:50;;;;;;;57.97;40.08;;;8.30;99.90;;;;;;5014381;28;20508;-55
2023/04/09 02:02:27;;;;;;;57.97;38.90;;;8.30;99.90;;;;;;5006284;28;20049;-56
2023/04/09 02:04:57;;;;;;;56.13;39.65;;;8.30;99.90;;;;;;5005239;28;20054;-55
2023/04/09 02:07:30;;;;;;;56.70;39.40;;;8.30;99.90;;;;;;5003838;28;20053;-55
2023/04/09 02:09:58;;;;;;;60.90;39.00;;;8.30;99.90;;;;;;5005611;28;20041;-55
2023/04/09 02:12:24;;;;;;;60.17;40.78;;;8.30;99.90;;;;;;5005983;28;20046;-53
2023/04/09 02:14:51;;;;;;;54.70;39.15;;;8.30;99.90;;;;;;5005583;28;20140;-56
2023/04/09 02:17:17;;;;;;;54.90;38.72;;;8.30;99.90;;;;;;5005612;28;20045;-55
2023/04/09 02:19:45;;;;;;;54.97;37.67;;;8.30;99.90;;;;;;5005950;28;20046;-54
2023/04/09 02:22:12;;;;;;;59.85;37.92;;;8.30;99.90;;;;;;5005253;28;20049;-54
2023/04/09 02:24:39;;;;;;;53.78;37.83;;;8.20;99.90;;;;;;5005629;28;20045;-55
2023/04/09 02:27:05;;;;;;;52.10;37.38;;;8.30;99.90;;;;;;5005157;28;20173;-54
2023/04/09 02:29:31;;;;;;;54.47;37.58;;;8.30;99.90;;;;;;5006183;28;20098;-55
2023/04/09 02:31:56;;;;;;;54.90;37.78;;;8.30;99.90;;;;;;5005927;28;20771;-55
2023/04/09 02:34:22;;;;;;;52.58;36.72;;;8.20;99.90;;;;;;5005275;28;20616;-56
2023/04/09 02:36:48;;;;;;;52.00;36.38;;;8.30;99.90;;;;;;5004742;28;20080;-55
2023/04/09 02:39:14;;;;;;;53.08;36.47;;;8.20;99.90;;;;;;5005950;28;20179;-55
2023/04/09 02:41:39;;;;;;;53.67;37.97;;;8.10;99.90;;;;;;5005192;28;20044;-55
2023/04/09 02:44:05;;;;;;;53.15;36.30;;;8.20;99.90;;;;;;5020603;28;20049;-55
2023/04/09 02:46:31;;;;;;;50.38;35.88;;;8.10;99.90;;;;;;5005796;28;20050;-56
2023/04/09 02:48:56;;;;;;;55.90;37.08;;;8.20;99.90;;;;;;5005231;28;20038;-56
2023/04/09 02:51:22;;;;;;;50.63;36.15;;;8.20;99.90;;;;;;5004178;28;20041;-55
2023/04/09 02:53:48;;;;;;;53.70;37.00;;;8.20;99.90;;;;;;5005296;28;20056;-55
2023/04/09 02:56:13;;;;;;;54.00;37.08;;;8.10;99.90;;;;;;5004520;28;20045;-56
2023/04/09 02:58:39;;;;;;;57.83;37.22;;;8.40;99.90;;;;;;5015840;28;20037;-55
2023/04/09 03:01:05;;;;;;;49.80;36.83;;;8.20;99.90;;;;;;5005899;28;20049;-55
2023/04/09 03:03:30;;;;;;;55.38;36.15;;;8.20;99.90;;;;;;5005945;28;20034;-56
2023/04/09 03:05:56;;;;;;;47.72;36.03;;;8.20;99.90;;;;;;5003453;28;20131;-55
2023/04/09 03:08:22;;;;;;;54.70;37.50;;;8.10;99.90;;;;;;5003608;28;20045;-54
2023/04/09 03:10:48;;;;;;;54.45;38.15;;;8.10;99.90;;;;;;5005712;28;20088;-54
2023/04/09 03:13:13;;;;;;;55.58;37.78;;;8.10;99.90;;;;;;5005492;28;20107;-55
2023/04/09 03:15:40;;;;;;;57.38;38.97;;;8.10;99.90;;;;;;5004881;28;20201;-56
2023/04/09 03:18:06;;;;;;;61.22;39.95;;;8.10;99.90;;;;;;5008462;28;20046;-55
2023/04/09 03:20:31;;;;;;;54.67;38.10;;;8.40;99.90;;;;;;5009284;28;20052;-54
2023/04/09 03:22:57;;;;;;;54.17;38.67;;;8.10;99.90;;;;;;5008434;28;20502;-54
2023/04/09 03:25:22;;;;;;;56.13;38.88;;;8.10;99.90;;;;;;5008593;28;20603;-55
2023/04/09 03:27:48;;;;;;;52.42;38.50;;;8.10;99.90;;;;;;5009086;28;20053;-55
2023/04/09 03:30:13;;;;;;;55.95;39.83;;;8.40;99.90;;;;;;5008598;28;20049;-55
2023/04/09 03:32:39;;;;;;;65.32;41.15;;;8.40;99.90;;;;;;5008581;28;20536;-55
2023/04/09 03:35:05;;;;;;;57.05;40.47;;;8.10;99.90;;;;;;5009058;28;20073;-55
2023/04/09 03:37:31;;;;;;;57.20;40.05;;;8.10;99.90;;;;;;5008319;28;20619;-55
2023/04/09 03:39:57;;;;;;;57.13;40.60;;;8.10;99.90;;;;;;5006772;28;20087;-55
2023/04/09 03:42:23;;;;;;;54.50;39.42;;;8.10;99.90;;;;;;5009292;28;20073;-55
2023/04/09 03:44:48;;;;;;;62.75;41.55;;;8.20;99.90;;;;;;5008767;28;20046;-55
2023/04/09 03:47:14;;;;;;;59.25;39.40;;;8.00;99.90;;;;;;5008341;28;20046;-55
2023/04/09 03:49:40;;;;;;;61.47;39.85;;;8.00;99.90;;;;;;5008242;28;20081;-54
2023/04/09 03:52:05;;;;;;;58.03;40.47;;;8.00;99.90;;;;;;5008196;28;20050;-56
2023/04/09 03:54:31;;;;;;;59.05;40.92;;;8.00;99.90;;;;;;5008743;28;20081;-54
2023/04/09 03:56:57;;;;;;;59.63;39.95;;;8.00;99.90;;;;;;5009179;28;20069;-56
2023/04/09 03:59:23;;;;;;;62.83;41.75;;;8.00;99.90;;;;;;5016910;28;20781;-55
2023/04/09 04:01:48;;;;;;;57.65;41.28;;;8.00;99.90;;;;;;5007513;28;20073;-55
2023/04/09 04:04:14;;;;;;;62.00;43.42;;;8.00;99.90;;;;;;5007301;28;20061;-55
2023/04/09 04:06:40;;;;;;;64.60;42.80;;;8.10;99.90;;;;;;5006622;28;20107;-54
2023/04/09 04:09:06;;;;;;;67.68;43.13;;;8.00;99.90;;;;;;5008302;28;20128;-55
2023/04/09 04:11:31;;;;;;;67.22;42.42;;;7.90;99.90;;;;;;5007725;28;20077;-55
2023/04/09 04:13:57;;;;;;;66.22;44.08;;;7.90;99.90;;;;;;5007375;28;20085;-55
2023/04/09 04:16:23;;;;;;;68.57;44.30;;;7.90;99.90;;;;;;5008182;28;20054;-55
2023/04/09 04:18:48;;;;;;;72.25;45.95;;;8.00;99.90;;;;;;5008303;28;20730;-54
2023/04/09 04:21:15;;;;;;;71.53;49.88;;;7.90;99.90;;;;;;5006637;28;20042;-54
2023/04/09 04:23:41;;;;;;;77.03;51.22;;;7.90;99.90;;;;;;5006661;28;20057;-52
2023/04/09 04:26:10;;;;;;;76.15;51.75;;;7.90;99.90;;;;;;5008300;28;20116;-55
2023/04/09 04:28:36;;;;;;;88.95;55.75;;;7.90;99.90;;;;;;5006248;28;20060;-56
2023/04/09 04:31:07;;;;;;;84.47;56.42;;;7.80;99.90;;;;;;5007491;28;20072;-55
2023/04/09 04:33:33;;;;;;;80.50;54.03;;;7.70;99.90;;;;;;5007587;28;20053;-56
2023/04/09 04:36:09;;;;;;;88.10;57.78;;;7.80;99.90;;;;;;5006963;28;20037;-55
2023/04/09 04:38:35;;;;;;;87.05;57.55;;;7.80;99.90;;;;;;5007850;28;20042;-55
2023/04/09 04:41:01;;;;;;;79.53;55.33;;;7.70;99.90;;;;;;5007601;28;20093;-55
2023/04/09 04:43:27;;;;;;;88.40;56.47;;;7.70;99.90;;;;;;5006429;28;20049;-56
2023/04/09 04:45:53;;;;;;;85.85;57.33;;;7.60;99.90;;;;;;5006956;28;20050;-55
2023/04/09 04:48:19;;;;;;;83.88;57.70;;;7.50;99.90;;;;;;5006058;28;20104;-55
2023/04/09 04:50:45;;;;;;;85.13;55.75;;;7.50;99.90;;;;;;5005485;28;20492;-55
2023/04/09 04:53:10;;;;;;;85.75;56.08;;;7.50;99.90;;;;;;5007251;28;20176;-55
2023/04/09 04:55:38;;;;;;;91.95;57.53;;;7.70;99.90;;;;;;5007533;28;20532;-55
2023/04/09 04:58:04;;;;;;;86.97;56.80;;;7.50;99.90;;;;;;5014166;28;20136;-56
2023/04/09 05:00:30;;;;;;;89.38;58.05;;;7.40;99.90;;;;;;5010571;28;20049;-55
2023/04/09 05:02:56;;;;;;;84.32;58.22;;;7.50;99.90;;;;;;5007362;28;20037;-55
2023/04/09 05:05:22;;;;;;;89.03;59.00;;;7.40;99.90;;;;;;5006337;28;20492;-55
2023/04/09 05:07:47;;;;;;;90.95;59.13;;;7.30;99.90;;;;;;5006490;28;20033;-56
2023/04/09 05:10:13;;;;;;;97.72;59.35;;;7.80;99.90;;;;;;5006736;28;20537;-53
2023/04/09 05:12:39;;;;;;;90.75;59.80;;;7.40;99.90;;;;;;5007231;28;20084;-56
2023/04/09 05:15:05;;;;;;;96.03;61.10;;;7.30;99.90;;;;;;5006865;28;20058;-55
2023/04/09 05:17:31;;;;;;;91.47;61.78;;;7.30;99.90;;;;;;5006325;28;20125;-55
2023/04/09 05:19:57;;;;;;;93.03;60.65;;;7.30;99.90;;;;;;5006991;28;20109;-56
2023/04/09 05:22:22;;;;;;;94.85;60.35;;;7.40;99.90;;;;;;5006085;28;20041;-55
2023/04/09 05:24:48;;;;;;;95.70;60.00;;;7.40;99.90;;;;;;5005286;28;20460;-53
2023/04/09 05:27:14;;;;;;;91.47;60.25;;;7.40;99.90;;;;;;5005436;28;20042;-54
2023/04/09 05:29:40;;;;;;;87.63;58.10;;;7.40;99.90;;;;;;5006864;28;20053;-55
2023/04/09 05:32:08;;;;;;;98.78;61.70;;;7.40;99.90;;;;;;5005346;28;20084;-55
2023/04/09 05:34:34;;;;;;;90.15;59.88;;;7.50;99.90;;;;;;5006093;28;20046;-55
2023/04/09 05:36:59;;;;;;;88.85;58.92;;;7.50;99.90;;;;;;5005402;28;20053;-56
2023/04/09 05:39:25;;;;;;;90.93;58.65;;;7.50;99.90;;;;;;5006340;28;20077;-56
2023/04/09 05:41:51;;;;;;;88.40;57.85;;;7.50;99.90;;;;;;5004696;28;20042;-55
2023/04/09 05:44:17;;;;;;;83.97;56.22;;;7.50;99.90;;;;;;5010772;28;20041;-56
2023/04/09 05:46:43;;;;;;;82.63;55.92;;;7.50;99.90;;;;;;5026314;28;20085;-55
2023/04/09 05:49:08;;;;;;;84.68;54.95;;;7.50;99.90;;;;;;5026073;28;20069;-55
2023/04/09 05:51:34;;;;;;;81.68;54.15;;;7.50;99.90;;;;;;5024451;28;20128;-54
2023/04/09 05:54:00;;;;;;;76.88;50.50;;;7.50;99.90;;;;;;5025913;28;20045;-56
2023/04/09 05:56:26;;;;;;;74.70;50.13;;;7.60;99.90;;;;;;5026068;28;20107;-55
2023/04/09 05:58:53;;;;;;;68.53;47.78;;;7.60;99.90;;;;;;5016766;28;20431;-55
2023/04/09 06:01:18;;;;;;;67.15;46.83;;;7.70;99.90;;;;;;5005241;28;20054;-54
2023/04/09 06:03:44;;;;;;;71.70;48.20;;;7.60;99.90;;;;;;5005569;28;20052;-55
2023/04/09 06:06:10;;;;;;;66.78;47.25;;;7.60;99.90;;;;;;5004357;28;20105;-55
2023/04/09 06:08:35;;;;;;;65.55;45.97;;;7.60;99.90;;;;;;5003746;28;20069;-55
2023/04/09 06:11:02;;;;;;;66.53;44.47;;;7.60;99.90;;;;;;5006054;28;20128;-55
2023/04/09 06:13:28;;;;;;;65.28;44.92;;;7.60;99.90;;;;;;5004778;28;20057;-55
2023/04/09 06:15:54;;;;;;;61.63;41.80;;;7.60;99.90;;;;;;5004994;28;20050;-56
2023/04/09 06:18:19;;;;;;;51.03;37.15;;;7.60;99.90;;;;;;5005874;28;20049;-55
2023/04/09 06:20:45;;;;;;;46.25;35.13;;;7.60;99.90;;;;;;5005160;28;20492;-55
2023/04/09 06:23:11;;;;;;;50.92;34.95;;;7.70;99.90;;;;;;5003961;28;20045;-55
2023/04/09 06:25:36;;;;;;;48.50;34.40;;;7.80;99.90;;;;;;5005339;28;20494;-54
2023/04/09 06:28:02;;;;;;;46.60;33.83;;;7.60;99.90;;;;;;5005752;28;20038;-54
2023/04/09 06:30:28;;;;;;;45.42;32.13;;;7.70;99.90;;;;;;5006206;28;20046;-55
2023/04/09 06:32:54;;;;;;;42.13;29.60;;;7.70;99.90;;;;;;5005108;28;20081;-55
2023/04/09 06:35:20;;;;;;;42.40;30.42;;;8.10;99.90;;;;;;5004949;28;20104;-55
2023/04/09 06:37:45;;;;;;;42.47;31.23;;;7.70;99.90;;;;;;5005637;28;20034;-54
2023/04/09 06:40:11;;;;;;;44.55;31.00;;;7.70;99.90;;;;;;5004840;28;20129;-56
2023/04/09 06:42:37;;;;;;;42.05;28.65;;;7.70;99.90;;;;;;5006022;28;20116;-54
2023/04/09 06:45:07;;;;;;;45.97;31.23;;;7.90;99.90;;;;;;5005284;28;20046;-55
2023/04/09 06:47:34;;;;;;;44.03;29.77;;;7.80;99.90;;;;;;5005144;28;20049;-55
2023/04/09 06:49:59;;;;;;;42.72;29.63;;;7.80;99.90;;;;;;5005664;28;20046;-56
2023/04/09 06:52:25;;;;;;;41.58;29.77;;;7.80;99.90;;;;;;5005709;28;20484;-57
2023/04/09 06:54:51;;;;;;;40.72;29.55;;;8.00;99.90;;;;;;5009724;28;20049;-56
2023/04/09 06:57:16;;;;;;;40.45;29.92;;;8.30;99.90;;;;;;5011696;28;20041;-56
2023/04/09 06:59:42;;;;;;;40.20;29.25;;;8.50;99.90;;;;;;5033321;28;20527;-57
2023/04/09 07:02:08;;;;;;;40.17;27.80;;;8.80;99.90;;;;;;5009300;28;20081;-56
2023/04/09 07:04:33;;;;;;;39.47;29.38;;;8.70;99.90;;;;;;5008693;28;20534;-56
2023/04/09 07:06:59;;;;;;;42.58;29.15;;;8.80;99.90;;;;;;5008438;28;20042;-55
2023/04/09 07:09:25;;;;;;;43.47;29.23;;;8.90;99.90;;;;;;5009348;28;20052;-57
2023/04/09 07:11:51;;;;;;;42.63;30.52;;;8.70;99.90;;;;;;5008936;28;20133;-56
2023/04/09 07:14:16;;;;;;;40.97;28.80;;;8.70;99.90;;;;;;5009310;28;20152;-56
2023/04/09 07:16:45;;;;;;;42.63;30.17;;;8.60;99.90;;;;;;5009328;28;20045;-56
2023/04/09 07:19:11;;;;;;;43.08;30.38;;;8.50;99.90;;;;;;5009079;28;20050;-56
2023/04/09 07:21:36;;;;;;;41.25;29.65;;;8.50;99.90;;;;;;5007686;28;20049;-57
2023/04/09 07:24:02;;;;;;;43.63;30.80;;;8.60;99.90;;;;;;5008977;28;20076;-57
2023/04/09 07:26:29;;;;;;;44.28;31.92;;;8.70;99.90;;;;;;5008866;28;20124;-55
2023/04/09 07:28:55;;;;;;;42.75;31.00;;;8.80;99.90;;;;;;5008367;28;20451;-57
2023/04/09 07:31:21;;;;;;;43.15;31.33;;;8.80;99.90;;;;;;5009410;28;20400;-55
2023/04/09 07:33:47;;;;;;;43.90;31.80;;;8.80;99.90;;;;;;5009180;28;20046;-57
2023/04/09 07:36:12;;;;;;;44.45;31.60;;;9.20;99.90;;;;;;5007734;28;20443;-55
2023/04/09 07:38:38;;;;;;;44.00;31.60;;;9.30;99.90;;;;;;5008628;28;20041;-55
2023/04/09 07:41:04;;;;;;;43.55;30.65;;;9.20;99.90;;;;;;5008706;28;20117;-55
2023/04/09 07:43:31;;;;;;;43.63;32.08;;;9.20;99.90;;;;;;5008613;28;20096;-55
2023/04/09 07:45:56;;;;;;;46.55;31.67;;;9.30;99.90;;;;;;5008105;28;20129;-56
2023/04/09 07:48:22;;;;;;;40.42;28.60;;;9.80;99.90;;;;;;5008665;28;20126;-55
2023/04/09 07:50:47;;;;;;;40.08;28.27;;;10.20;99.90;;;;;;5007918;28;20479;-55
2023/04/09 07:53:13;;;;;;;40.42;27.48;;;10.10;99.90;;;;;;5008087;28;20088;-56
2023/04/09 07:55:39;;;;;;;40.17;27.60;;;10.00;99.90;;;;;;5008421;28;20501;-57
2023/04/09 07:58:06;;;;;;;36.53;26.48;;;10.20;99.90;;;;;;5014912;28;20091;-56
2023/04/09 08:00:31;;;;;;;36.92;26.98;;;10.10;99.90;;;;;;5012413;28;20042;-56
2023/04/09 08:02:58;;;;;;;39.00;27.70;;;10.20;99.90;;;;;;5006901;28;20116;-55
2023/04/09 08:05:23;;;;;;;38.42;27.00;;;10.70;99.90;;;;;;5006268;28;20037;-56
2023/04/09 08:07:52;;;;;;;38.28;26.88;;;10.80;99.90;;;;;;5006652;28;20527;-56
2023/04/09 08:10:18;;;;;;;37.05;26.30;;;10.70;99.90;;;;;;5006130;28;20093;-55
2023/04/09 08:12:44;;;;;;;38.28;25.80;;;10.70;99.90;;;;;;5007682;28;20038;-56
2023/04/09 08:15:10;;;;;;;36.97;26.83;;;10.50;99.90;;;;;;5013154;28;20045;-56
2023/04/09 08:17:36;;;;;;;35.03;26.13;;;10.60;99.90;;;;;;5026427;28;20076;-55
2023/04/09 08:20:03;;;;;;;35.03;24.23;;;10.70;99.90;;;;;;5025241;28;20084;-55
2023/04/09 08:22:29;;;;;;;34.78;25.75;;;11.00;99.90;;;;;;5025923;28;20057;-55
2023/04/09 08:24:56;;;;;;;33.33;24.17;;;11.20;99.90;;;;;;5027269;28;20049;-54
2023/04/09 08:27:22;;;;;;;36.88;25.90;;;11.10;99.90;;;;;;5026371;28;20115;-56
2023/04/09 08:29:48;;;;;;;36.40;25.60;;;11.10;99.90;;;;;;5027849;28;20049;-55
2023/04/09 08:32:14;;;;;;;34.15;24.88;;;10.80;99.90;;;;;;5027925;28;20042;-54
2023/04/09 08:34:40;;;;;;;33.47;23.17;;;10.70;99.90;;;;;;5026967;28;20076;-54
2023/04/09 08:37:05;;;;;;;29.70;22.50;;;10.70;99.90;;;;;;5020595;28;20363;-54
2023/04/09 08:39:32;;;;;;;33.28;23.48;;;10.80;99.90;;;;;;5007544;28;20097;-54
2023/04/09 08:42:01;;;;;;;32.13;22.52;;;10.90;99.90;;;;;;5005823;28;20045;-55
2023/04/09 08:44:28;;;;;;;33.55;21.85;;;11.10;99.90;;;;;;5014933;28;20064;-53
2023/04/09 08:46:53;;;;;;;30.30;21.83;;;11.10;99.90;;;;;;5027555;28;20124;-48
2023/04/09 08:49:20;;;;;;;31.63;20.65;;;11.10;99.90;;;;;;5026983;28;20758;-54
2023/04/09 08:51:47;;;;;;;33.67;21.10;;;11.20;99.90;;;;;;5025171;28;20033;-55
2023/04/09 08:54:15;;;;;;;28.40;20.20;;;11.40;99.90;;;;;;5026033;28;20056;-56
2023/04/09 08:56:42;;;;;;;29.75;20.33;;;11.40;99.90;;;;;;5025524;28;20141;-55
2023/04/09 08:59:08;;;;;;;29.02;19.58;;;11.60;99.90;;;;;;5017791;28;20049;-55
2023/04/09 09:01:34;;;;;;;28.60;19.42;;;12.10;99.90;;;;;;5006425;28;20081;-56
2023/04/09 09:04:05;;;;;;;28.65;19.75;;;12.60;99.90;;;;;;5016697;28;20526;-56
2023/04/09 09:06:35;;;;;;;30.20;20.48;;;12.80;99.90;;;;;;5023764;28;20041;-56
2023/04/09 09:09:13;;;;;;;29.52;19.67;;;13.10;99.90;;;;;;5024869;28;20029;-56
2023/04/09 09:11:40;;;;;;;28.83;19.42;;;13.20;99.90;;;;;;5024215;28;20041;-56
2023/04/09 09:14:07;;;;;;;29.92;20.50;;;13.30;99.90;;;;;;5023794;28;20115;-56
2023/04/09 09:16:34;;;;;;;29.75;20.05;;;13.30;99.90;;;;;;5024459;28;20050;-55
2023/04/09 09:19:03;;;;;;;31.10;20.30;;;13.30;99.90;;;;;;5025558;28;20045;-56
2023/04/09 09:21:29;;;;;;;29.80;20.33;;;13.20;99.90;;;;;;5025775;28;20045;-56
2023/04/09 09:23:55;;;;;;;30.35;20.45;;;13.20;99.90;;;;;;5026650;28;20091;-56
2023/04/09 09:26:24;;;;;;;56.60;32.13;;;13.50;99.90;;;;;;5026922;28;20052;-57
2023/04/09 09:28:51;;;;;;;31.92;21.48;;;13.50;99.90;;;;;;5025895;28;20096;-57
2023/04/09 09:31:18;;;;;;;29.33;19.92;;;13.50;99.90;;;;;;5026530;28;20079;-57
2023/04/09 09:33:45;;;;;;;29.05;20.55;;;13.60;99.90;;;;;;5025469;28;20543;-57
2023/04/09 09:36:12;;;;;;;32.22;20.60;;;13.30;99.90;;;;;;5024720;28;20050;-57
2023/04/09 09:39:11;;;;;;;27.85;20.02;;;13.00;99.90;;;;;;5026286;28;20041;-57
2023/04/09 09:41:39;;;;;;;33.55;23.30;;;12.80;99.90;;;;;;4972593;28;20053;-56
2023/04/09 09:44:06;;;;;;;32.17;22.20;;;12.80;99.90;;;;;;5026109;28;20049;-57
2023/04/09 09:46:35;;;;;;;28.65;20.70;;;13.00;99.90;;;;;;5026050;28;20057;-56
2023/04/09 09:49:01;;;;;;;30.70;20.25;;;13.40;99.90;;;;;;5026212;28;20045;-56
2023/04/09 09:51:27;;;;;;;30.38;20.85;;;13.60;99.90;;;;;;5024787;28;20130;-57
2023/04/09 09:53:58;;;;;;;30.80;20.33;;;13.40;99.90;;;;;;5025403;28;20053;-55
2023/04/09 09:56:33;;;;;;;30.50;20.90;;;13.30;99.90;;;;;;5026318;28;20046;-57
2023/04/09 09:59:22;;;;;;;30.67;20.40;;;13.60;99.90;;;;;;5017045;28;20069;-56
2023/04/09 10:01:56;;;;;;;27.70;19.90;;;13.80;99.90;;;;;;5005870;28;20507;-56
2023/04/09 10:04:22;;;;;;;27.30;19.10;;;13.80;99.90;;;;;;5006032;28;20050;-60
2023/04/09 10:06:50;;;;;;;29.83;20.42;;;13.90;99.90;;;;;;5004317;28;20081;-56
2023/04/09 10:09:16;;;;;;;29.25;19.80;;;14.10;99.90;;;;;;5005721;28;20112;-58
2023/04/09 10:11:46;;;;;;;31.63;21.05;;;14.20;99.90;;;;;;5005152;28;20137;-58
2023/04/09 10:14:12;;;;;;;32.55;21.75;;;14.20;99.90;;;;;;5005027;28;20576;-57
2023/04/09 10:16:39;;;;;;;31.00;21.23;;;14.20;99.90;;;;;;5005228;28;20420;-57
2023/04/09 10:19:06;;;;;;;30.08;21.58;;;14.20;99.90;;;;;;5005330;28;20064;-55
2023/04/09 10:21:53;;;;;;;30.15;21.77;;;14.30;99.90;;;;;;5005059;28;20037;-57
2023/04/09 10:24:19;;;;;;;29.50;21.65;;;14.30;99.90;;;;;;5005419;28;20081;-58
2023/04/09 10:26:45;;;;;;;33.33;22.65;;;14.20;99.90;;;;;;5005577;28;20046;-57
2023/04/09 10:29:13;;;;;;;30.30;22.00;;;14.10;99.90;;;;;;5005559;28;20046;-57
2023/04/09 10:32:06;;;;;;;32.78;22.25;;;14.10;99.90;;;;;;5004653;28;20057;-58
2023/04/09 10:34:40;;;;;;;30.27;21.77;;;14.10;99.90;;;;;;5003972;28;20713;-57
2023/04/09 10:37:26;;;;;;;31.70;22.20;;;14.20;99.90;;;;;;5006067;28;20507;-57
2023/04/09 10:39:52;;;;;;;35.75;22.85;;;14.20;99.90;;;;;;5005393;28;20358;-57
2023/04/09 10:42:23;;;;;;;33.65;22.48;;;14.10;99.90;;;;;;5005293;28;20108;-58
2023/04/09 10:45:07;;;;;;;30.55;21.83;;;14.30;99.90;;;;;;5005867;28;20408;-58
2023/04/09 10:47:35;;;;;;;27.23;19.95;;;14.70;99.90;;;;;;5005769;28;20041;-58
2023/04/09 10:50:18;;;;;;;29.13;20.15;;;14.90;99.90;;;;;;5003743;28;20082;-57
2023/04/09 10:52:44;;;;;;;28.38;21.25;;;14.90;99.90;;;;;;5005494;28;20042;-57
2023/04/09 10:55:35;;;;;;;30.70;21.65;;;14.90;99.90;;;;;;5005591;28;20623;-58
2023/04/09 10:58:05;;;;;;;31.58;21.77;;;15.20;99.90;;;;;;5012416;28;20159;-57
2023/04/09 11:00:32;;;;;;;31.30;21.85;;;15.40;99.90;;;;;;5009707;28;20830;-56
2023/04/09 11:03:00;;;;;;;29.60;21.83;;;15.00;99.90;;;;;;5005276;28;20042;-58
2023/04/09 11:05:37;;;;;;;30.25;21.92;;;14.80;99.90;;;;;;5004853;28;20053;-55
2023/04/09 11:08:10;;;;;;;28.85;17.67;;;14.80;99.90;;;;;;5005868;28;20129;-55
2023/04/09 11:10:43;;;;;;;29.57;19.37;;;15.00;99.90;;;;;;5004800;28;20041;-57
2023/04/09 11:13:13;;;;;;;26.88;19.70;;;15.00;99.90;;;;;;5005634;28;20293;-57
2023/04/09 11:15:39;;;;;;;26.73;18.95;;;15.00;99.90;;;;;;5004871;28;20068;-55
2023/04/09 11:18:12;;;;;;;25.73;17.92;;;15.10;99.90;;;;;;5005988;28;20405;-57
2023/04/09 11:20:39;;;;;;;25.73;19.67;;;15.00;99.90;;;;;;5004986;28;20054;-56
2023/04/09 11:23:05;;;;;;;27.02;19.63;;;15.00;99.90;;;;;;5004879;28;20046;-57
2023/04/09 11:25:32;;;;;;;28.55;19.75;;;14.80;99.90;;;;;;5005963;28;20924;-56
2023/04/09 11:27:58;;;;;;;26.17;18.75;;;14.60;99.90;;;;;;5005686;28;20054;-57
2023/04/09 11:30:25;;;;;;;25.17;18.05;;;14.70;99.90;;;;;;5005065;28;20030;-56
2023/04/09 11:32:51;;;;;;;28.35;19.45;;;14.90;99.90;;;;;;5005198;28;20132;-56
2023/04/09 11:35:19;;;;;;;24.75;17.88;;;14.80;99.90;;;;;;5004232;28;20077;-57
2023/04/09 11:37:45;;;;;;;26.88;18.85;;;14.80;99.90;;;;;;5005777;28;20045;-57
2023/04/09 11:40:22;;;;;;;25.05;18.27;;;14.70;99.90;;;;;;5008359;28;20116;-57
2023/04/09 11:42:50;;;;;;;28.75;19.65;;;14.60;99.90;;;;;;5009169;28;20046;-57
2023/04/09 11:45:16;;;;;;;23.52;16.90;;;14.80;99.90;;;;;;5009000;28;20050;-57
2023/04/09 11:47:43;;;;;;;27.50;19.38;;;15.00;99.90;;;;;;5006900;28;20549;-56
2023/04/09 11:50:11;;;;;;;24.60;17.70;;;15.10;99.90;;;;;;5007960;28;20054;-57
2023/04/09 11:52:37;;;;;;;28.20;20.17;;;15.10;99.50;;;;;;5008447;28;20046;-68
2023/04/09 11:55:04;;;;;;;24.85;18.92;;;14.90;99.50;;;;;;5008619;28;20038;-58
2023/04/09 11:57:43;;;;;;;24.65;17.80;;;14.90;99.90;;;;;;5011214;28;20046;-55
2023/04/09 12:00:13;;;;;;;23.60;16.58;;;15.20;98.80;;;;;;5021291;28;20049;-58
2023/04/09 12:02:49;;;;;;;22.67;15.68;;;15.20;97.10;;;;;;5028355;28;20505;-57
2023/04/09 12:05:27;;;;;;;23.65;18.48;;;15.20;98.30;;;;;;5026917;28;20049;-57
2023/04/09 12:08:07;;;;;;;25.88;18.63;;;15.30;97.90;;;;;;5027843;28;20049;-58
2023/04/09 12:10:35;;;;;;;22.67;17.38;;;15.50;97.80;;;;;;5028081;28;20038;-58
2023/04/09 12:13:10;;;;;;;20.90;14.93;;;15.70;97.20;;;;;;5027350;28;20396;-57
2023/04/09 12:15:40;;;;;;;24.42;14.98;;;15.80;94.30;;;;;;5023746;28;20042;-57
2023/04/09 12:18:12;;;;;;;23.17;17.33;;;15.80;92.50;;;;;;5013366;28;20725;-57
2023/04/09 12:20:41;;;;;;;24.85;17.25;;;15.70;93.40;;;;;;5015951;28;20040;-58
2023/04/09 12:23:08;;;;;;;23.65;16.20;;;15.70;94.10;;;;;;5016640;28;20056;-58
2023/04/09 12:25:39;;;;;;;20.27;14.43;;;15.90;93.30;;;;;;5018656;28;20041;-54
2023/04/09 12:28:06;;;;;;;21.77;16.23;;;15.80;92.40;;;;;;5015719;28;20855;-58
2023/04/09 12:30:32;;;;;;;20.63;15.63;;;15.90;91.80;;;;;;5020847;28;20223;-58
2023/04/09 12:32:58;;;;;;;21.80;15.48;;;15.70;92.60;;;;;;5027469;28;20056;-56
2023/04/09 12:35:24;;;;;;;19.52;14.32;;;15.70;92.50;;;;;;5026228;28;20416;-57